Time;durP1;ratioP1;P1;durP2;ratioP2;P2;SDS_P1;SDS_P2;PMS_P1;PMS_P2;Temp;Humidity;BMP_temperature;BMP_pressure;BME280_temperature;BME280_humidity;BME280_pressure;Samples;Min_cycle;Max_cycle;Signal;HPM_P1;HPM_P2
2022/01/09 00:01:43;;;;;;;6.72;5.38;;;4.40;99.90;;;;;;4992377;28;20104;-77
2022/01/09 00:04:08;;;;;;;8.90;5.90;;;4.30;99.90;;;;;;4992340;28;20043;-77
2022/01/09 00:06:34;;;;;;;7.78;5.65;;;4.40;99.90;;;;;;4992409;28;20050;-77
2022/01/09 00:09:00;;;;;;;6.97;5.05;;;4.40;99.90;;;;;;4992216;28;20057;-77
2022/01/09 00:11:26;;;;;;;7.30;5.68;;;4.30;99.90;;;;;;4992514;28;20054;-77
2022/01/09 00:13:56;;;;;;;10.43;6.28;;;4.30;99.90;;;;;;4992530;28;20054;-77
2022/01/09 00:16:23;;;;;;;6.20;4.85;;;4.30;99.90;;;;;;4992040;28;20250;-77
2022/01/09 00:18:50;;;;;;;8.30;5.53;;;4.40;99.90;;;;;;4992296;28;20034;-77
2022/01/09 00:21:16;;;;;;;7.95;6.07;;;4.40;99.90;;;;;;4992078;28;20042;-77
2022/01/09 00:23:42;;;;;;;10.20;5.80;;;4.40;99.90;;;;;;4992045;28;20038;-77
2022/01/09 00:26:09;;;;;;;7.80;5.72;;;4.40;99.90;;;;;;4975845;28;20045;-77
2022/01/09 00:28:35;;;;;;;10.50;5.88;;;4.30;99.90;;;;;;4991911;28;20490;-77
2022/01/09 00:31:01;;;;;;;9.40;5.72;;;4.30;99.90;;;;;;4991898;28;20141;-77
2022/01/09 00:33:27;;;;;;;7.43;5.25;;;4.30;99.90;;;;;;4975731;28;20125;-77
2022/01/09 00:35:53;;;;;;;7.05;5.10;;;4.30;99.90;;;;;;4991560;28;20042;-77
2022/01/09 00:38:19;;;;;;;8.07;5.20;;;4.30;99.90;;;;;;4991924;28;20050;-77
2022/01/09 00:40:44;;;;;;;8.73;6.20;;;4.30;99.90;;;;;;4991783;28;20044;-77
2022/01/09 00:43:10;;;;;;;10.32;5.97;;;4.30;99.90;;;;;;4991961;28;20045;-77
2022/01/09 00:45:37;;;;;;;10.15;6.30;;;4.30;99.90;;;;;;4991537;28;20042;-77
2022/01/09 00:48:03;;;;;;;9.60;5.63;;;4.30;99.90;;;;;;4991751;28;20109;-77
2022/01/09 00:50:29;;;;;;;8.20;5.60;;;4.30;99.90;;;;;;4994036;28;20046;-80
2022/01/09 00:52:55;;;;;;;7.88;5.53;;;4.30;99.90;;;;;;4994168;28;20121;-81
2022/01/09 00:55:20;;;;;;;9.05;6.05;;;4.30;99.90;;;;;;4978979;28;20096;-80
2022/01/09 00:57:46;;;;;;;9.55;5.90;;;4.30;99.90;;;;;;4994725;28;20494;-81
2022/01/09 01:00:13;;;;;;;8.80;6.03;;;4.40;99.90;;;;;;4994345;28;20073;-80
2022/01/09 01:02:39;;;;;;;11.55;6.55;;;4.30;99.90;;;;;;4995023;28;20450;-80
2022/01/09 01:05:07;;;;;;;10.63;6.97;;;4.40;99.90;;;;;;4994879;28;20078;-80
2022/01/09 01:07:32;;;;;;;8.25;5.80;;;4.40;99.90;;;;;;4994464;28;20441;-80
2022/01/09 01:09:58;;;;;;;8.95;6.47;;;4.40;99.90;;;;;;4994980;28;20120;-81
2022/01/09 01:12:25;;;;;;;10.13;6.57;;;4.40;99.90;;;;;;4994288;28;20039;-81
2022/01/09 01:14:51;;;;;;;8.93;6.43;;;4.40;99.90;;;;;;4993862;28;20426;-80
2022/01/09 01:17:16;;;;;;;10.32;6.38;;;4.40;99.90;;;;;;4994484;28;20113;-80
2022/01/09 01:19:42;;;;;;;8.98;5.88;;;4.40;99.90;;;;;;4993733;28;20061;-81
2022/01/09 01:22:08;;;;;;;10.13;5.80;;;4.30;99.90;;;;;;4991442;28;20042;-77
2022/01/09 01:24:36;;;;;;;10.60;6.15;;;4.40;99.90;;;;;;4991325;28;20065;-77
2022/01/09 01:27:01;;;;;;;9.05;6.05;;;4.40;99.90;;;;;;4992252;28;20046;-77
2022/01/09 01:29:27;;;;;;;9.75;6.65;;;4.40;99.90;;;;;;4991137;28;20640;-77
2022/01/09 01:31:53;;;;;;;8.95;6.05;;;4.40;99.90;;;;;;4991186;28;20046;-77
2022/01/09 01:34:18;;;;;;;10.18;7.18;;;4.40;99.90;;;;;;4992454;28;20393;-77
2022/01/09 01:36:44;;;;;;;10.40;6.53;;;4.40;99.90;;;;;;4990959;28;20042;-78
2022/01/09 01:39:09;;;;;;;11.32;7.53;;;4.40;99.90;;;;;;4991092;28;20129;-77
2022/01/09 01:41:35;;;;;;;10.80;6.50;;;4.40;99.90;;;;;;4991367;28;20125;-76
2022/01/09 01:44:01;;;;;;;10.60;6.60;;;4.40;99.90;;;;;;4991119;28;20065;-77
2022/01/09 01:46:27;;;;;;;9.20;6.07;;;4.40;99.90;;;;;;4990872;28;20429;-77
2022/01/09 01:48:53;;;;;;;8.30;6.07;;;4.40;99.90;;;;;;4991238;28;20129;-77
2022/01/09 01:51:21;;;;;;;10.02;6.38;;;4.50;99.90;;;;;;4991049;28;20050;-78
2022/01/09 01:53:47;;;;;;;9.65;6.70;;;4.50;99.90;;;;;;4991087;28;20129;-77
2022/01/09 01:56:19;;;;;;;9.05;6.25;;;4.50;99.90;;;;;;4990677;28;20117;-77
2022/01/09 01:58:45;;;;;;;8.93;6.60;;;4.50;99.90;;;;;;4990823;28;20051;-77
2022/01/09 02:01:11;;;;;;;9.10;6.03;;;4.50;99.90;;;;;;4990901;28;20117;-78
2022/01/09 02:03:38;;;;;;;11.13;7.00;;;4.50;99.90;;;;;;4974779;28;20129;-77
2022/01/09 02:06:04;;;;;;;8.90;6.38;;;4.50;99.90;;;;;;4990741;28;20046;-77
2022/01/09 02:08:31;;;;;;;7.60;5.30;;;4.50;99.90;;;;;;4990937;28;20121;-77
2022/01/09 02:10:57;;;;;;;12.95;5.82;;;4.50;99.90;;;;;;4990867;28;20058;-78
2022/01/09 02:13:22;;;;;;;8.93;5.90;;;4.50;99.90;;;;;;4991064;28;20052;-77
2022/01/09 02:15:48;;;;;;;8.18;5.30;;;4.50;99.90;;;;;;4990551;28;20035;-77
2022/01/09 02:18:18;;;;;;;7.93;5.80;;;4.60;99.90;;;;;;4990620;28;20050;-77
2022/01/09 02:20:44;;;;;;;9.98;5.85;;;4.50;99.90;;;;;;4992022;28;20416;-77
2022/01/09 02:23:10;;;;;;;9.07;6.15;;;4.50;99.90;;;;;;4992198;28;20065;-77
2022/01/09 02:25:37;;;;;;;8.88;5.72;;;4.50;99.90;;;;;;4994116;28;20528;-77
2022/01/09 02:28:03;;;;;;;8.15;5.68;;;4.60;99.90;;;;;;4977971;28;20081;-76
2022/01/09 02:30:32;;;;;;;8.75;5.55;;;4.60;99.90;;;;;;4994177;28;20680;-76
2022/01/09 02:32:59;;;;;;;8.38;5.55;;;4.60;99.90;;;;;;4994189;28;20042;-77
2022/01/09 02:35:25;;;;;;;7.68;4.97;;;4.60;99.90;;;;;;4977600;28;20481;-77
2022/01/09 02:37:51;;;;;;;10.23;6.18;;;4.60;99.90;;;;;;4994019;28;20251;-77
2022/01/09 02:40:17;;;;;;;9.88;5.25;;;4.60;99.90;;;;;;4994044;28;20043;-77
2022/01/09 02:42:42;;;;;;;7.70;5.40;;;4.60;99.90;;;;;;4993954;28;20406;-77
2022/01/09 02:45:08;;;;;;;7.05;4.72;;;4.60;99.90;;;;;;4994927;28;20497;-77
2022/01/09 02:47:35;;;;;;;8.52;5.10;;;4.70;99.90;;;;;;4994031;28;20053;-77
2022/01/09 02:50:12;;;;;;;8.35;5.20;;;4.60;99.90;;;;;;4997958;28;20101;-80
2022/01/09 02:52:49;;;;;;;9.10;5.18;;;4.70;99.90;;;;;;5000739;28;20387;-80
2022/01/09 02:55:15;;;;;;;7.07;4.43;;;4.70;99.90;;;;;;5000963;28;20050;-80
2022/01/09 02:57:42;;;;;;;9.48;4.65;;;4.70;99.90;;;;;;4983984;28;20465;-80
2022/01/09 03:00:11;;;;;;;7.78;4.80;;;4.70;99.90;;;;;;5001488;28;20042;-80
2022/01/09 03:02:36;;;;;;;11.85;4.18;;;4.70;99.90;;;;;;5000770;28;20038;-77
2022/01/09 03:05:03;;;;;;;7.85;4.72;;;4.70;99.90;;;;;;4977183;28;20394;-77
2022/01/09 03:07:28;;;;;;;6.75;4.10;;;4.70;99.90;;;;;;4993537;28;20049;-77
2022/01/09 03:09:54;;;;;;;8.10;4.22;;;4.70;99.90;;;;;;4993684;28;20038;-77
2022/01/09 03:12:20;;;;;;;8.20;4.00;;;4.80;99.90;;;;;;4993375;28;20046;-77
2022/01/09 03:14:46;;;;;;;10.88;3.80;;;4.80;99.90;;;;;;4977376;28;20096;-77
2022/01/09 03:17:11;;;;;;;9.65;3.47;;;4.90;99.90;;;;;;4993047;28;20074;-77
2022/01/09 03:19:37;;;;;;;10.98;2.70;;;4.90;99.90;;;;;;4993348;28;20042;-77
2022/01/09 03:22:03;;;;;;;18.45;2.75;;;5.00;99.90;;;;;;4993271;28;20038;-77
2022/01/09 03:24:28;;;;;;;13.75;2.80;;;5.10;99.90;;;;;;4993121;28;20034;-76
2022/01/09 03:26:54;;;;;;;13.55;3.28;;;5.20;99.90;;;;;;4993206;28;20082;-76
2022/01/09 03:29:19;;;;;;;16.35;3.05;;;5.30;99.90;;;;;;4993029;28;20129;-77
2022/01/09 03:31:45;;;;;;;17.73;3.47;;;5.40;99.90;;;;;;4993082;28;20125;-76
2022/01/09 03:34:10;;;;;;;23.08;3.78;;;5.40;99.90;;;;;;4993229;28;20185;-76
2022/01/09 03:36:36;;;;;;;22.20;4.03;;;5.50;99.90;;;;;;4992698;28;20045;-77
2022/01/09 03:39:02;;;;;;;19.20;2.88;;;5.50;99.90;;;;;;4992838;28;20046;-76
2022/01/09 03:41:27;;;;;;;29.92;3.53;;;5.50;99.90;;;;;;4992911;28;20038;-77
2022/01/09 03:43:53;;;;;;;21.58;3.50;;;5.50;99.90;;;;;;4992726;28;20046;-77
2022/01/09 03:46:19;;;;;;;24.45;4.57;;;5.60;99.90;;;;;;4992555;28;20046;-77
2022/01/09 03:48:44;;;;;;;30.63;3.53;;;5.60;99.90;;;;;;4992683;28;20053;-76
2022/01/09 03:51:11;;;;;;;25.60;2.72;;;5.60;99.90;;;;;;4993968;28;20038;-77
2022/01/09 03:53:37;;;;;;;31.27;3.50;;;5.60;99.90;;;;;;4992615;28;20520;-77
2022/01/09 03:56:03;;;;;;;23.08;4.43;;;5.60;99.90;;;;;;4992354;28;20074;-77
2022/01/09 03:58:28;;;;;;;24.35;4.18;;;5.60;99.90;;;;;;4992498;28;20093;-76
2022/01/09 04:00:54;;;;;;;24.20;4.30;;;5.60;99.90;;;;;;4992542;28;20136;-77
2022/01/09 04:03:19;;;;;;;29.98;4.68;;;5.60;99.90;;;;;;4992466;28;20413;-76
2022/01/09 04:05:45;;;;;;;29.85;3.72;;;5.60;99.90;;;;;;4995518;28;20054;-81
2022/01/09 04:08:11;;;;;;;28.95;4.32;;;5.60;99.90;;;;;;4999142;28;20061;-80
2022/01/09 04:10:41;;;;;;;23.50;4.13;;;5.60;99.90;;;;;;4998115;28;20034;-81
2022/01/09 04:13:08;;;;;;;22.80;4.53;;;5.60;99.90;;;;;;4999635;28;20038;-80
2022/01/09 04:15:33;;;;;;;34.08;5.55;;;5.60;99.90;;;;;;4980314;28;20050;-81
2022/01/09 04:18:00;;;;;;;28.17;4.05;;;5.60;99.90;;;;;;4980959;28;20057;-80
2022/01/09 04:20:28;;;;;;;32.80;4.90;;;5.70;99.90;;;;;;4997771;28;20046;-81
2022/01/09 04:22:54;;;;;;;14.88;2.83;;;5.70;99.90;;;;;;4997812;28;20066;-81
2022/01/09 04:25:20;;;;;;;20.70;2.65;;;5.70;99.90;;;;;;4981338;28;20042;-81
2022/01/09 04:27:47;;;;;;;29.58;4.80;;;5.80;99.90;;;;;;4996413;28;20045;-80
2022/01/09 04:30:14;;;;;;;17.20;3.63;;;5.80;99.90;;;;;;4979654;28;20050;-80
2022/01/09 04:32:40;;;;;;;20.50;3.97;;;5.80;99.90;;;;;;4979452;28;20057;-77
2022/01/09 04:35:07;;;;;;;15.30;2.55;;;5.80;99.90;;;;;;4991866;28;20132;-77
2022/01/09 04:37:34;;;;;;;25.55;2.97;;;5.80;99.90;;;;;;4991868;28;20134;-77
2022/01/09 04:40:00;;;;;;;20.02;3.22;;;5.80;99.90;;;;;;4991750;28;20042;-77
2022/01/09 04:42:33;;;;;;;14.75;2.95;;;5.80;99.90;;;;;;4991769;28;20085;-77
2022/01/09 04:44:59;;;;;;;24.48;3.33;;;5.90;99.90;;;;;;4991847;28;20054;-77
2022/01/09 04:47:25;;;;;;;21.05;4.30;;;5.80;99.90;;;;;;4991226;28;20512;-77
2022/01/09 04:49:51;;;;;;;32.25;4.18;;;5.80;99.90;;;;;;4991551;28;20049;-77
2022/01/09 04:52:20;;;;;;;21.00;3.22;;;5.80;99.90;;;;;;4991652;28;20050;-77
2022/01/09 04:54:46;;;;;;;20.23;2.88;;;5.80;99.90;;;;;;4991733;28;20061;-81
2022/01/09 04:57:12;;;;;;;21.05;3.70;;;5.70;99.90;;;;;;4994723;28;20046;-81
2022/01/09 04:59:37;;;;;;;18.83;2.15;;;5.80;99.90;;;;;;4994673;28;20074;-80
2022/01/09 05:02:04;;;;;;;19.23;2.78;;;5.80;99.90;;;;;;4979273;28;20039;-80
2022/01/09 05:04:29;;;;;;;14.73;2.17;;;5.80;99.90;;;;;;4979369;28;20049;-81
2022/01/09 05:06:55;;;;;;;12.57;2.38;;;5.70;99.90;;;;;;4995769;28;20042;-81
2022/01/09 05:09:20;;;;;;;16.77;2.95;;;5.70;99.90;;;;;;4995038;28;20513;-81
2022/01/09 05:11:46;;;;;;;14.15;2.40;;;5.60;99.90;;;;;;4996299;28;20057;-80
2022/01/09 05:14:11;;;;;;;14.57;1.80;;;5.70;99.90;;;;;;4979791;28;20057;-81
2022/01/09 05:16:41;;;;;;;14.18;2.20;;;5.60;99.90;;;;;;4996033;28;20088;-81
2022/01/09 05:19:16;;;;;;;16.08;2.03;;;5.60;99.90;;;;;;4994842;28;20050;-82
2022/01/09 05:21:42;;;;;;;9.38;1.67;;;5.60;99.90;;;;;;4995862;28;20050;-81
2022/01/09 05:24:07;;;;;;;12.13;2.72;;;5.60;99.90;;;;;;4996280;28;20041;-81
2022/01/09 05:26:33;;;;;;;9.90;1.30;;;5.70;99.90;;;;;;4996194;28;20069;-81
2022/01/09 05:28:58;;;;;;;11.15;1.67;;;5.70;99.90;;;;;;4995616;28;20045;-81
2022/01/09 05:31:24;;;;;;;13.18;1.75;;;5.70;99.90;;;;;;4996484;28;20108;-81
2022/01/09 05:33:49;;;;;;;10.38;1.88;;;5.70;99.90;;;;;;4996720;28;20042;-81
2022/01/09 05:36:15;;;;;;;12.05;2.05;;;5.70;99.90;;;;;;4976852;28;20070;-76
2022/01/09 05:38:40;;;;;;;9.55;1.92;;;5.70;99.90;;;;;;4991057;28;20049;-76
2022/01/09 05:41:06;;;;;;;15.23;2.42;;;5.60;99.90;;;;;;4991435;28;20405;-76
2022/01/09 05:43:32;;;;;;;10.93;1.25;;;5.60;99.90;;;;;;4991080;28;20050;-77
2022/01/09 05:45:57;;;;;;;19.55;2.63;;;5.60;99.90;;;;;;4990913;28;20042;-76
2022/01/09 05:48:23;;;;;;;14.52;1.75;;;5.50;99.90;;;;;;4991122;28;20042;-76
2022/01/09 05:50:48;;;;;;;12.00;2.63;;;5.50;99.90;;;;;;4990968;28;20050;-76
2022/01/09 05:53:14;;;;;;;13.57;2.20;;;5.40;99.90;;;;;;4991034;28;20085;-77
2022/01/09 05:55:40;;;;;;;18.58;2.25;;;5.40;99.90;;;;;;4990700;28;20034;-75
2022/01/09 05:58:05;;;;;;;15.15;2.50;;;5.40;99.90;;;;;;4992392;28;20042;-76
2022/01/09 06:00:31;;;;;;;16.05;2.47;;;5.50;99.90;;;;;;4994846;28;20039;-76
2022/01/09 06:02:57;;;;;;;11.77;1.52;;;5.30;99.90;;;;;;4994756;28;20042;-77
2022/01/09 06:05:23;;;;;;;12.00;1.60;;;5.40;99.90;;;;;;4994407;28;20121;-77
2022/01/09 06:07:49;;;;;;;20.65;2.22;;;5.40;99.90;;;;;;4994561;28;20046;-77
2022/01/09 06:10:15;;;;;;;11.85;1.77;;;5.30;99.90;;;;;;4994608;28;20093;-77
2022/01/09 06:12:40;;;;;;;14.40;1.98;;;5.40;99.90;;;;;;4978290;28;20065;-77
2022/01/09 06:15:07;;;;;;;8.25;2.03;;;5.30;99.90;;;;;;4994264;28;20116;-77
2022/01/09 06:17:37;;;;;;;11.82;2.13;;;5.30;99.90;;;;;;4978311;28;20046;-76
2022/01/09 06:20:03;;;;;;;6.60;1.75;;;5.30;99.90;;;;;;4994270;28;20069;-76
2022/01/09 06:22:29;;;;;;;12.13;1.60;;;5.30;99.90;;;;;;4994443;28;20122;-76
2022/01/09 06:24:54;;;;;;;9.73;2.22;;;5.30;99.90;;;;;;4994355;28;20070;-76
2022/01/09 06:27:21;;;;;;;11.27;1.60;;;5.30;99.90;;;;;;4994108;28;20053;-77
2022/01/09 06:29:47;;;;;;;17.88;3.30;;;5.30;99.90;;;;;;4995410;28;20034;-76
2022/01/09 06:32:12;;;;;;;6.65;1.63;;;5.20;99.90;;;;;;4994316;28;20046;-77
2022/01/09 06:34:38;;;;;;;10.63;1.38;;;5.20;99.90;;;;;;4978009;28;20086;-76
2022/01/09 06:37:04;;;;;;;11.65;1.85;;;5.20;99.90;;;;;;4993844;28;20100;-76
2022/01/09 06:39:29;;;;;;;11.35;1.75;;;5.20;99.90;;;;;;4994016;28;20053;-76
2022/01/09 06:41:55;;;;;;;8.90;1.70;;;5.20;99.90;;;;;;4978019;28;20426;-76
2022/01/09 06:44:21;;;;;;;9.75;1.65;;;5.10;99.90;;;;;;4993990;28;20046;-75
2022/01/09 06:46:46;;;;;;;9.07;1.50;;;5.10;99.90;;;;;;4993744;28;20073;-75
2022/01/09 06:49:12;;;;;;;10.77;1.80;;;5.10;99.90;;;;;;4994930;28;20421;-76
2022/01/09 06:51:37;;;;;;;10.48;1.98;;;5.10;99.90;;;;;;4993860;28;20412;-77
2022/01/09 06:54:03;;;;;;;14.25;2.15;;;5.10;99.90;;;;;;4993883;28;20057;-76
2022/01/09 06:56:29;;;;;;;6.05;1.60;;;5.10;99.90;;;;;;4993506;28;20096;-76
2022/01/09 06:58:55;;;;;;;9.93;1.95;;;5.00;99.90;;;;;;4977493;28;20046;-76
2022/01/09 07:01:20;;;;;;;13.02;1.30;;;5.00;99.90;;;;;;4993731;28;20034;-76
2022/01/09 07:03:46;;;;;;;7.25;1.40;;;5.00;99.90;;;;;;4993583;28;20053;-76
2022/01/09 07:06:12;;;;;;;10.82;1.48;;;5.00;99.90;;;;;;4993392;28;20046;-78
2022/01/09 07:08:37;;;;;;;5.75;1.27;;;4.90;99.90;;;;;;4993182;28;20046;-76
2022/01/09 07:11:04;;;;;;;4.15;1.25;;;4.90;99.90;;;;;;4993477;28;20046;-76
2022/01/09 07:13:30;;;;;;;8.13;1.48;;;4.90;99.90;;;;;;4993546;28;20042;-76
2022/01/09 07:15:55;;;;;;;6.22;1.30;;;4.90;99.90;;;;;;4993112;28;20442;-76
2022/01/09 07:18:22;;;;;;;10.43;1.73;;;4.90;99.90;;;;;;4993288;28;20129;-76
2022/01/09 07:20:47;;;;;;;4.60;0.88;;;4.90;99.90;;;;;;4993433;28;20042;-76
2022/01/09 07:23:13;;;;;;;1.75;0.82;;;4.80;99.90;;;;;;4993688;28;20047;-76
2022/01/09 07:25:38;;;;;;;8.32;0.90;;;4.80;99.90;;;;;;4993181;28;20054;-76
2022/01/09 07:28:04;;;;;;;3.08;1.05;;;4.80;99.90;;;;;;4993145;28;20050;-75
2022/01/09 07:30:30;;;;;;;6.35;0.65;;;4.80;99.90;;;;;;4993181;28;20042;-76
2022/01/09 07:32:56;;;;;;;9.73;1.67;;;4.80;99.90;;;;;;4993030;28;20084;-76
2022/01/09 07:35:22;;;;;;;2.97;0.68;;;4.80;99.90;;;;;;4993039;28;20401;-75
2022/01/09 07:37:48;;;;;;;5.40;0.93;;;4.80;99.90;;;;;;4992930;28;20042;-76
2022/01/09 07:40:15;;;;;;;5.45;1.10;;;4.80;99.90;;;;;;4992951;28;20050;-76
2022/01/09 07:42:41;;;;;;;9.30;1.73;;;4.80;99.90;;;;;;4993195;28;20046;-76
2022/01/09 07:45:07;;;;;;;9.20;0.93;;;4.80;99.90;;;;;;4992682;28;20035;-75
2022/01/09 07:47:36;;;;;;;8.90;1.13;;;4.80;99.90;;;;;;4976582;28;20046;-76
2022/01/09 07:50:04;;;;;;;6.30;1.10;;;4.80;99.90;;;;;;4992859;28;20042;-76
2022/01/09 07:52:34;;;;;;;14.38;2.25;;;4.70;99.90;;;;;;4992788;28;20557;-75
2022/01/09 07:55:00;;;;;;;4.95;2.08;;;4.70;99.90;;;;;;4992759;28;20462;-77
2022/01/09 07:57:25;;;;;;;5.15;1.55;;;4.80;99.90;;;;;;4992473;28;20081;-76
2022/01/09 07:59:51;;;;;;;6.43;1.33;;;4.80;99.90;;;;;;4992377;28;20129;-76
2022/01/09 08:02:16;;;;;;;8.98;1.27;;;4.80;99.90;;;;;;4992528;28;20493;-76
2022/01/09 08:04:42;;;;;;;15.00;2.33;;;4.80;99.90;;;;;;4992558;28;20117;-78
2022/01/09 08:07:07;;;;;;;14.27;4.70;;;4.80;99.90;;;;;;4992850;28;20046;-79
2022/01/09 08:09:33;;;;;;;6.03;1.45;;;4.80;99.90;;;;;;4976270;28;20124;-77
2022/01/09 08:11:58;;;;;;;6.45;1.63;;;4.80;99.90;;;;;;4992419;28;20095;-76
2022/01/09 08:14:24;;;;;;;5.45;2.05;;;4.90;99.90;;;;;;4992480;28;20457;-77
2022/01/09 08:16:50;;;;;;;12.20;2.67;;;4.90;99.90;;;;;;4992002;28;20041;-78
2022/01/09 08:19:15;;;;;;;5.45;1.83;;;4.90;99.90;;;;;;4992187;28;20058;-76
2022/01/09 08:21:41;;;;;;;7.63;1.15;;;4.90;99.90;;;;;;4991633;28;20050;-77
2022/01/09 08:24:06;;;;;;;4.53;0.77;;;4.90;99.90;;;;;;4992370;28;20038;-77
2022/01/09 08:26:32;;;;;;;6.28;1.63;;;4.90;99.90;;;;;;4992287;28;20061;-80
2022/01/09 08:28:57;;;;;;;8.88;1.48;;;4.90;99.90;;;;;;4992931;28;20077;-77
2022/01/09 08:31:23;;;;;;;12.02;2.90;;;4.90;99.90;;;;;;4994305;28;20099;-81
2022/01/09 08:33:49;;;;;;;7.70;2.47;;;4.90;99.90;;;;;;4993720;28;20057;-81
2022/01/09 08:36:15;;;;;;;12.85;2.80;;;4.90;99.90;;;;;;4993443;28;20031;-82
2022/01/09 08:38:42;;;;;;;5.40;1.52;;;4.90;99.90;;;;;;4994173;28;20039;-80
2022/01/09 08:41:08;;;;;;;7.82;2.20;;;4.90;99.90;;;;;;4996553;28;20525;-81
2022/01/09 08:43:36;;;;;;;8.38;2.17;;;4.90;99.90;;;;;;4994372;28;20039;-81
2022/01/09 08:46:01;;;;;;;14.27;2.22;;;4.90;99.90;;;;;;4992766;28;20531;-81
2022/01/09 08:48:27;;;;;;;6.47;1.48;;;4.90;99.90;;;;;;4995425;28;20129;-81
2022/01/09 08:50:53;;;;;;;8.13;1.85;;;4.90;99.90;;;;;;4981262;28;20074;-80
2022/01/09 08:53:19;;;;;;;5.00;1.10;;;4.90;99.90;;;;;;4996403;28;20436;-82
2022/01/09 08:55:44;;;;;;;8.73;1.48;;;4.90;99.90;;;;;;4994701;28;20039;-81
2022/01/09 08:58:10;;;;;;;11.40;3.22;;;4.90;99.90;;;;;;4978485;28;20046;-81
2022/01/09 09:00:35;;;;;;;13.77;2.30;;;4.90;99.90;;;;;;4994922;28;20065;-81
2022/01/09 09:03:01;;;;;;;3.85;1.42;;;4.90;99.90;;;;;;4995161;28;20042;-81
2022/01/09 09:05:26;;;;;;;3.72;1.13;;;4.90;99.90;;;;;;4996844;28;20511;-81
2022/01/09 09:07:52;;;;;;;18.38;1.85;;;4.90;99.90;;;;;;4994272;28;20528;-81
2022/01/09 09:10:17;;;;;;;7.22;1.55;;;4.90;99.90;;;;;;4994747;28;20076;-81
2022/01/09 09:12:43;;;;;;;8.55;2.03;;;4.90;99.90;;;;;;4995662;28;20062;-81
2022/01/09 09:15:09;;;;;;;6.30;1.55;;;4.90;99.90;;;;;;4978813;28;20386;-81
2022/01/09 09:17:35;;;;;;;14.60;2.10;;;5.00;99.90;;;;;;4994263;28;20052;-81
2022/01/09 09:20:00;;;;;;;11.90;4.18;;;5.00;99.90;;;;;;4995010;28;20092;-81
2022/01/09 09:22:26;;;;;;;11.55;1.30;;;5.00;99.90;;;;;;4995063;28;20401;-80
2022/01/09 09:24:52;;;;;;;9.27;1.83;;;5.00;99.90;;;;;;4979701;28;20041;-80
2022/01/09 09:27:19;;;;;;;5.90;1.40;;;5.00;99.90;;;;;;4995640;28;20110;-81
2022/01/09 09:29:45;;;;;;;13.80;2.10;;;5.00;99.90;;;;;;4979204;28;20049;-81
2022/01/09 09:32:10;;;;;;;4.55;1.08;;;5.10;99.90;;;;;;4996832;28;20046;-80
2022/01/09 09:34:38;;;;;;;7.35;1.33;;;5.10;99.90;;;;;;4982902;28;20565;-80
2022/01/09 09:37:04;;;;;;;13.00;1.80;;;5.10;99.90;;;;;;4996394;28;20038;-79
2022/01/09 09:39:30;;;;;;;10.23;1.45;;;5.10;99.90;;;;;;4995420;28;20038;-79
2022/01/09 09:41:55;;;;;;;7.00;1.77;;;5.10;99.90;;;;;;4995365;28;20049;-78
2022/01/09 09:44:21;;;;;;;5.85;1.88;;;5.10;99.90;;;;;;4978961;28;20038;-78
2022/01/09 09:46:49;;;;;;;11.32;1.58;;;5.10;99.90;;;;;;4978657;28;20049;-78
2022/01/09 09:49:16;;;;;;;15.93;1.92;;;5.20;99.90;;;;;;4994924;28;20125;-78
2022/01/09 09:51:42;;;;;;;14.85;1.85;;;5.20;99.90;;;;;;4978803;28;20078;-78
2022/01/09 09:54:07;;;;;;;14.70;2.17;;;5.20;99.90;;;;;;4978776;28;20081;-78
2022/01/09 09:56:33;;;;;;;12.73;2.33;;;5.20;99.90;;;;;;4994876;28;20042;-79
2022/01/09 09:59:00;;;;;;;8.55;1.83;;;5.30;99.90;;;;;;4994671;28;20498;-79
2022/01/09 10:01:29;;;;;;;13.05;1.65;;;5.30;99.90;;;;;;4995999;28;20096;-78
2022/01/09 10:03:57;;;;;;;8.77;1.63;;;5.30;99.90;;;;;;4978625;28;20113;-79
2022/01/09 10:06:43;;;;;;;11.85;1.90;;;5.40;99.90;;;;;;4978181;28;20498;-78
2022/01/09 10:09:17;;;;;;;15.02;1.80;;;5.50;99.90;;;;;;4978295;28;20528;-80
2022/01/09 10:11:53;;;;;;;12.00;1.77;;;5.50;99.90;;;;;;4994777;28;20050;-78
2022/01/09 10:14:20;;;;;;;8.02;2.17;;;5.60;99.90;;;;;;4994783;28;20057;-79
2022/01/09 10:17:13;;;;;;;13.32;2.88;;;5.60;99.90;;;;;;4978065;28;20498;-78
2022/01/09 10:19:54;;;;;;;16.65;3.25;;;5.60;99.90;;;;;;4978663;28;20467;-79
2022/01/09 10:22:28;;;;;;;42.35;18.48;;;5.70;99.90;;;;;;4995927;28;20073;-78
2022/01/09 10:24:55;;;;;;;25.80;7.65;;;5.80;99.90;;;;;;4994541;28;20081;-79
2022/01/09 10:27:33;;;;;;;9.57;2.50;;;5.80;99.90;;;;;;4994200;28;20042;-79
2022/01/09 10:29:59;;;;;;;11.50;2.65;;;5.90;99.90;;;;;;4994169;28;20097;-78
2022/01/09 10:32:29;;;;;;;14.00;2.15;;;6.00;99.90;;;;;;4994766;28;20038;-77
2022/01/09 10:35:08;;;;;;;19.23;2.10;;;5.90;99.90;;;;;;4977966;28;20121;-76
2022/01/09 10:37:38;;;;;;;15.35;1.63;;;5.90;99.90;;;;;;4995265;28;20046;-76
2022/01/09 10:40:05;;;;;;;8.65;1.95;;;5.90;99.90;;;;;;4977932;28;20133;-78
2022/01/09 10:42:32;;;;;;;6.90;1.45;;;6.00;99.90;;;;;;4994040;28;20038;-80
2022/01/09 10:45:16;;;;;;;14.18;1.90;;;6.00;99.90;;;;;;4993337;28;20050;-78
2022/01/09 10:47:41;;;;;;;9.93;1.80;;;6.00;99.90;;;;;;4995390;28;20118;-77
2022/01/09 10:50:08;;;;;;;14.63;3.63;;;6.10;99.90;;;;;;4997553;28;20073;-81
2022/01/09 10:52:38;;;;;;;9.60;1.80;;;6.10;99.90;;;;;;4995920;28;20049;-81
2022/01/09 10:55:07;;;;;;;16.77;2.83;;;6.10;99.90;;;;;;4996305;28;20175;-81
2022/01/09 10:57:36;;;;;;;10.63;2.60;;;6.10;99.90;;;;;;4998527;28;20038;-81
2022/01/09 11:00:10;;;;;;;11.95;1.88;;;6.10;99.90;;;;;;4981916;28;20052;-81
2022/01/09 11:02:36;;;;;;;12.35;2.28;;;6.10;99.90;;;;;;4998234;28;20046;-81
2022/01/09 11:05:02;;;;;;;14.15;2.13;;;6.10;99.90;;;;;;4997352;28;20042;-81
2022/01/09 11:07:28;;;;;;;15.60;2.97;;;6.20;99.90;;;;;;4996824;28;20494;-81
2022/01/09 11:09:55;;;;;;;10.88;1.63;;;6.10;99.90;;;;;;4995603;28;20097;-81
2022/01/09 11:12:23;;;;;;;14.98;2.20;;;6.10;99.90;;;;;;4996686;28;20053;-81
2022/01/09 11:14:51;;;;;;;16.88;1.50;;;6.20;99.90;;;;;;5003329;28;20073;-81
2022/01/09 11:17:18;;;;;;;9.32;1.83;;;6.20;99.90;;;;;;4996577;28;20038;-81
2022/01/09 11:19:44;;;;;;;11.15;1.73;;;6.20;99.90;;;;;;4996656;28;20045;-80
2022/01/09 11:22:10;;;;;;;7.60;1.77;;;6.30;99.90;;;;;;4980461;28;20129;-82
2022/01/09 11:24:58;;;;;;;8.63;2.45;;;6.40;99.90;;;;;;4980089;28;20039;-81
2022/01/09 11:27:55;;;;;;;6.07;1.92;;;6.40;99.90;;;;;;4981319;28;20404;-81
2022/01/09 11:30:33;;;;;;;8.23;1.77;;;6.50;99.90;;;;;;4996321;28;20050;-81
2022/01/09 11:33:03;;;;;;;7.28;1.88;;;6.60;99.90;;;;;;4982458;28;20078;-80
2022/01/09 11:35:46;;;;;;;7.30;1.23;;;6.60;99.90;;;;;;4995463;28;20129;-81
2022/01/09 11:38:35;;;;;;;;;;;6.60;99.90;;;;;;4996256;28;20050;-81
2022/01/09 11:41:20;;;;;;;11.13;1.70;;;6.60;99.90;;;;;;4995486;28;19917;-81
2022/01/09 11:44:22;;;;;;;9.43;1.92;;;6.60;99.90;;;;;;4996717;28;20042;-82
2022/01/09 11:46:59;;;;;;;;;;;6.60;99.90;;;;;;4989832;28;20086;-81
2022/01/09 11:49:29;;;;;;;6.22;1.70;;;6.50;99.90;;;;;;4996995;28;20376;-82
2022/01/09 11:51:57;;;;;;;11.43;2.42;;;6.50;99.90;;;;;;5001027;28;20094;-81
2022/01/09 11:54:24;;;;;;;6.97;1.50;;;6.60;99.90;;;;;;4994690;28;20087;-83
2022/01/09 11:57:10;;;;;;;6.80;1.50;;;6.50;99.90;;;;;;4993529;28;20126;-82
2022/01/09 11:59:38;;;;;;;7.53;2.17;;;6.70;99.90;;;;;;4981008;28;20057;-82
2022/01/09 12:02:28;;;;;;;8.90;2.00;;;6.70;99.90;;;;;;4998417;28;20093;-83
2022/01/09 12:05:04;;;;;;;7.50;1.63;;;6.80;99.90;;;;;;4996735;28;20042;-82
2022/01/09 12:07:32;;;;;;;15.60;2.25;;;6.80;99.90;;;;;;4977962;28;20125;-83
2022/01/09 12:10:00;;;;;;;11.38;2.20;;;6.80;99.90;;;;;;4993471;28;20042;-83
2022/01/09 12:12:31;;;;;;;8.20;2.28;;;6.90;99.90;;;;;;4977820;28;20046;-82
2022/01/09 12:15:08;;;;;;;11.45;2.35;;;7.00;99.90;;;;;;4993027;28;20042;-82
2022/01/09 12:17:36;;;;;;;12.68;2.40;;;7.20;99.90;;;;;;4976585;28;20046;-83
2022/01/09 12:20:05;;;;;;;9.73;2.10;;;7.40;99.90;;;;;;4993946;28;20047;-83
2022/01/09 12:22:44;;;;;;;22.45;3.95;;;7.50;99.90;;;;;;4994399;28;20048;-83
2022/01/09 12:25:25;;;;;;;8.27;2.20;;;7.60;99.90;;;;;;4992461;28;20088;-83
2022/01/09 12:28:11;;;;;;;14.50;2.63;;;7.60;99.90;;;;;;4976739;28;20045;-83
2022/01/09 12:30:38;;;;;;;13.13;2.80;;;7.50;99.90;;;;;;4992857;28;20046;-82
2022/01/09 12:33:09;;;;;;;8.45;1.60;;;7.30;99.90;;;;;;4994640;28;20409;-84
2022/01/09 12:35:43;;;;;;;4.82;1.38;;;7.20;99.90;;;;;;4994048;28;20070;-83
2022/01/09 12:38:14;;;;;;;7.57;1.58;;;7.00;99.90;;;;;;4998414;28;20092;-81
2022/01/09 12:40:40;;;;;;;11.82;4.18;;;6.80;99.90;;;;;;4982757;28;20074;-82
2022/01/09 12:43:07;;;;;;;10.35;2.55;;;6.70;99.90;;;;;;4984205;28;20065;-81
2022/01/09 12:45:43;;;;;;;11.30;1.95;;;6.50;99.90;;;;;;4983630;28;20478;-81
2022/01/09 12:48:36;;;;;;;9.73;2.28;;;6.40;99.90;;;;;;5001009;28;20030;-81
2022/01/09 12:51:14;;;;;;;8.57;2.17;;;6.40;99.90;;;;;;4983670;28;20046;-81
2022/01/09 12:54:06;;;;;;;7.10;1.73;;;6.30;99.90;;;;;;4983913;28;20096;-81
2022/01/09 12:56:37;;;;;;;10.65;1.42;;;6.20;99.90;;;;;;5000127;28;20772;-82